sensor_id;sensor_type;location;lat;lon;timestamp;temperature;humidity
9816;DHT22;4947;44.526;11.360;2023-03-03T00:01:53;7.10;99.90
9816;DHT22;4947;44.526;11.360;2023-03-03T00:04:20;7.10;99.90
9816;DHT22;4947;44.526;11.360;2023-03-03T00:06:48;7.00;99.90
9816;DHT22;4947;44.526;11.360;2023-03-03T00:09:15;7.00;99.90
9816;DHT22;4947;44.526;11.360;2023-03-03T00:11:43;7.00;99.90
9816;DHT22;4947;44.526;11.360;2023-03-03T00:14:19;7.10;99.90
9816;DHT22;4947;44.526;11.360;2023-03-03T00:16:48;7.10;99.90
9816;DHT22;4947;44.526;11.360;2023-03-03T00:19:18;7.10;99.90
9816;DHT22;4947;44.526;11.360;2023-03-03T00:21:46;7.20;99.90
9816;DHT22;4947;44.526;11.360;2023-03-03T00:24:19;7.20;99.90
9816;DHT22;4947;44.526;11.360;2023-03-03T00:26:48;7.20;99.90
9816;DHT22;4947;44.526;11.360;2023-03-03T00:29:27;7.20;99.90
9816;DHT22;4947;44.526;11.360;2023-03-03T00:32:01;7.20;99.90
9816;DHT22;4947;44.526;11.360;2023-03-03T00:34:35;7.20;99.90
9816;DHT22;4947;44.526;11.360;2023-03-03T00:37:19;7.10;99.90
9816;DHT22;4947;44.526;11.360;2023-03-03T00:39:48;7.20;99.90
9816;DHT22;4947;44.526;11.360;2023-03-03T00:42:17;7.20;99.90
9816;DHT22;4947;44.526;11.360;2023-03-03T00:44:47;7.20;99.90
9816;DHT22;4947;44.526;11.360;2023-03-03T00:47:27;7.20;99.90
9816;DHT22;4947;44.526;11.360;2023-03-03T00:50:22;7.20;99.90
9816;DHT22;4947;44.526;11.360;2023-03-03T00:52:58;7.20;99.90
9816;DHT22;4947;44.526;11.360;2023-03-03T00:55:26;7.10;99.90
9816;DHT22;4947;44.526;11.360;2023-03-03T00:57:54;7.20;99.90
9816;DHT22;4947;44.526;11.360;2023-03-03T01:00:24;7.10;99.90
9816;DHT22;4947;44.526;11.360;2023-03-03T01:02:52;7.10;99.90
9816;DHT22;4947;44.526;11.360;2023-03-03T01:05:20;7.10;99.90
9816;DHT22;4947;44.526;11.360;2023-03-03T01:07:47;7.10;99.90
9816;DHT22;4947;44.526;11.360;2023-03-03T01:10:15;7.00;99.90
9816;DHT22;4947;44.526;11.360;2023-03-03T01:12:43;7.00;99.90
9816;DHT22;4947;44.526;11.360;2023-03-03T01:15:12;7.00;99.90
9816;DHT22;4947;44.526;11.360;2023-03-03T01:17:42;6.90;99.90
9816;DHT22;4947;44.526;11.360;2023-03-03T01:20:13;6.90;99.90
9816;DHT22;4947;44.526;11.360;2023-03-03T01:22:41;6.90;99.90
9816;DHT22;4947;44.526;11.360;2023-03-03T01:25:09;7.00;99.90
9816;DHT22;4947;44.526;11.360;2023-03-03T01:27:37;7.00;99.90
9816;DHT22;4947;44.526;11.360;2023-03-03T01:30:06;6.90;99.90
9816;DHT22;4947;44.526;11.360;2023-03-03T01:32:37;6.90;99.90
9816;DHT22;4947;44.526;11.360;2023-03-03T01:35:07;6.90;99.90
9816;DHT22;4947;44.526;11.360;2023-03-03T01:37:35;6.90;99.90
9816;DHT22;4947;44.526;11.360;2023-03-03T01:40:04;6.90;99.90
9816;DHT22;4947;44.526;11.360;2023-03-03T01:42:32;6.80;99.90
9816;DHT22;4947;44.526;11.360;2023-03-03T01:45:19;6.80;99.90
9816;DHT22;4947;44.526;11.360;2023-03-03T01:47:55;6.70;99.90
9816;DHT22;4947;44.526;11.360;2023-03-03T01:50:32;6.70;99.90
9816;DHT22;4947;44.526;11.360;2023-03-03T01:53:05;6.70;99.90
9816;DHT22;4947;44.526;11.360;2023-03-03T01:55:38;6.70;99.90
9816;DHT22;4947;44.526;11.360;2023-03-03T01:58:11;6.70;99.90
9816;DHT22;4947;44.526;11.360;2023-03-03T02:00:42;6.70;99.90
9816;DHT22;4947;44.526;11.360;2023-03-03T02:03:10;6.80;99.90
9816;DHT22;4947;44.526;11.360;2023-03-03T02:05:41;6.80;99.90
9816;DHT22;4947;44.526;11.360;2023-03-03T02:08:11;6.80;99.90
9816;DHT22;4947;44.526;11.360;2023-03-03T02:10:45;6.80;99.90
9816;DHT22;4947;44.526;11.360;2023-03-03T02:13:14;6.80;99.90
9816;DHT22;4947;44.526;11.360;2023-03-03T02:15:41;6.80;99.90
9816;DHT22;4947;44.526;11.360;2023-03-03T02:18:12;6.80;99.90
9816;DHT22;4947;44.526;11.360;2023-03-03T02:20:56;6.90;99.90
9816;DHT22;4947;44.526;11.360;2023-03-03T02:23:29;6.80;99.90
9816;DHT22;4947;44.526;11.360;2023-03-03T02:26:05;6.80;99.90
9816;DHT22;4947;44.526;11.360;2023-03-03T02:28:35;6.80;99.90
9816;DHT22;4947;44.526;11.360;2023-03-03T02:31:06;6.70;99.90
9816;DHT22;4947;44.526;11.360;2023-03-03T02:33:35;6.70;99.90
9816;DHT22;4947;44.526;11.360;2023-03-03T02:36:03;6.70;99.90
9816;DHT22;4947;44.526;11.360;2023-03-03T02:38:35;6.70;99.90
9816;DHT22;4947;44.526;11.360;2023-03-03T02:41:11;6.70;99.90
9816;DHT22;4947;44.526;11.360;2023-03-03T02:43:44;6.60;99.90
9816;DHT22;4947;44.526;11.360;2023-03-03T02:46:12;6.50;99.90
9816;DHT22;4947;44.526;11.360;2023-03-03T02:48:40;6.60;99.90
9816;DHT22;4947;44.526;11.360;2023-03-03T02:51:08;6.50;99.90
9816;DHT22;4947;44.526;11.360;2023-03-03T02:53:36;6.60;99.90
9816;DHT22;4947;44.526;11.360;2023-03-03T02:56:04;6.60;99.90
9816;DHT22;4947;44.526;11.360;2023-03-03T02:58:36;6.60;99.90
9816;DHT22;4947;44.526;11.360;2023-03-03T03:01:03;6.60;99.90
9816;DHT22;4947;44.526;11.360;2023-03-03T03:03:31;6.70;99.90
9816;DHT22;4947;44.526;11.360;2023-03-03T03:05:59;6.70;99.90
9816;DHT22;4947;44.526;11.360;2023-03-03T03:08:26;6.70;99.90
9816;DHT22;4947;44.526;11.360;2023-03-03T03:10:54;6.70;99.90
9816;DHT22;4947;44.526;11.360;2023-03-03T03:13:22;6.70;99.90
9816;DHT22;4947;44.526;11.360;2023-03-03T03:15:51;6.80;99.90
9816;DHT22;4947;44.526;11.360;2023-03-03T03:18:18;6.70;99.90
9816;DHT22;4947;44.526;11.360;2023-03-03T03:20:46;6.70;99.90
9816;DHT22;4947;44.526;11.360;2023-03-03T03:23:14;6.70;99.90
9816;DHT22;4947;44.526;11.360;2023-03-03T03:25:42;6.80;99.90
9816;DHT22;4947;44.526;11.360;2023-03-03T03:28:12;6.80;99.90
9816;DHT22;4947;44.526;11.360;2023-03-03T03:30:40;6.80;99.90
9816;DHT22;4947;44.526;11.360;2023-03-03T03:33:10;6.80;99.90
9816;DHT22;4947;44.526;11.360;2023-03-03T03:35:38;6.80;99.90
9816;DHT22;4947;44.526;11.360;2023-03-03T03:38:10;6.80;99.90
9816;DHT22;4947;44.526;11.360;2023-03-03T03:40:37;6.90;99.90
9816;DHT22;4947;44.526;11.360;2023-03-03T03:43:05;6.90;99.90
9816;DHT22;4947;44.526;11.360;2023-03-03T03:45:34;7.00;99.90
9816;DHT22;4947;44.526;11.360;2023-03-03T03:48:02;7.00;99.90
9816;DHT22;4947;44.526;11.360;2023-03-03T03:50:32;7.00;99.90
9816;DHT22;4947;44.526;11.360;2023-03-03T03:53:00;6.90;99.90
9816;DHT22;4947;44.526;11.360;2023-03-03T03:55:28;6.90;99.90
9816;DHT22;4947;44.526;11.360;2023-03-03T03:57:57;7.00;99.90
9816;DHT22;4947;44.526;11.360;2023-03-03T04:00:25;6.90;99.90
9816;DHT22;4947;44.526;11.360;2023-03-03T04:02:52;6.90;99.90
9816;DHT22;4947;44.526;11.360;2023-03-03T04:05:20;6.90;99.90
9816;DHT22;4947;44.526;11.360;2023-03-03T04:07:49;6.80;99.90
9816;DHT22;4947;44.526;11.360;2023-03-03T04:10:17;6.70;99.90
9816;DHT22;4947;44.526;11.360;2023-03-03T04:12:45;6.70;99.90
9816;DHT22;4947;44.526;11.360;2023-03-03T04:15:14;6.60;99.90
9816;DHT22;4947;44.526;11.360;2023-03-03T04:17:42;6.60;99.90
9816;DHT22;4947;44.526;11.360;2023-03-03T04:20:12;6.60;99.90
9816;DHT22;4947;44.526;11.360;2023-03-03T04:22:40;6.50;99.90
9816;DHT22;4947;44.526;11.360;2023-03-03T04:25:11;6.30;99.90
9816;DHT22;4947;44.526;11.360;2023-03-03T04:27:40;6.30;99.90
9816;DHT22;4947;44.526;11.360;2023-03-03T04:30:10;6.30;99.90
9816;DHT22;4947;44.526;11.360;2023-03-03T04:32:38;6.30;99.90
9816;DHT22;4947;44.526;11.360;2023-03-03T04:35:06;6.30;99.90
9816;DHT22;4947;44.526;11.360;2023-03-03T04:37:35;6.30;99.90
9816;DHT22;4947;44.526;11.360;2023-03-03T04:40:03;6.20;99.90
9816;DHT22;4947;44.526;11.360;2023-03-03T04:42:33;6.20;99.90
9816;DHT22;4947;44.526;11.360;2023-03-03T04:45:00;6.20;99.90
9816;DHT22;4947;44.526;11.360;2023-03-03T04:47:28;6.10;99.90
9816;DHT22;4947;44.526;11.360;2023-03-03T04:49:56;6.10;99.90
9816;DHT22;4947;44.526;11.360;2023-03-03T04:52:24;6.10;99.90
9816;DHT22;4947;44.526;11.360;2023-03-03T04:54:52;6.10;99.90
9816;DHT22;4947;44.526;11.360;2023-03-03T04:57:20;6.10;99.90
9816;DHT22;4947;44.526;11.360;2023-03-03T04:59:49;6.10;99.90
9816;DHT22;4947;44.526;11.360;2023-03-03T05:02:21;6.20;99.90
9816;DHT22;4947;44.526;11.360;2023-03-03T05:04:49;6.30;99.90
9816;DHT22;4947;44.526;11.360;2023-03-03T05:07:16;6.20;99.90
9816;DHT22;4947;44.526;11.360;2023-03-03T05:09:46;6.20;99.90
9816;DHT22;4947;44.526;11.360;2023-03-03T05:12:14;6.20;99.90
9816;DHT22;4947;44.526;11.360;2023-03-03T05:14:41;6.10;99.90
9816;DHT22;4947;44.526;11.360;2023-03-03T05:17:12;6.10;99.90
9816;DHT22;4947;44.526;11.360;2023-03-03T05:19:41;6.00;99.90
9816;DHT22;4947;44.526;11.360;2023-03-03T05:22:09;6.00;99.90
9816;DHT22;4947;44.526;11.360;2023-03-03T05:24:37;5.90;99.90
9816;DHT22;4947;44.526;11.360;2023-03-03T05:27:06;5.90;99.90
9816;DHT22;4947;44.526;11.360;2023-03-03T05:29:33;5.90;99.90
9816;DHT22;4947;44.526;11.360;2023-03-03T05:32:01;5.90;99.90
9816;DHT22;4947;44.526;11.360;2023-03-03T05:34:31;6.00;99.90
9816;DHT22;4947;44.526;11.360;2023-03-03T05:36:59;5.90;99.90
9816;DHT22;4947;44.526;11.360;2023-03-03T05:39:28;5.90;99.90
9816;DHT22;4947;44.526;11.360;2023-03-03T05:41:56;5.90;99.90
9816;DHT22;4947;44.526;11.360;2023-03-03T05:44:24;5.90;99.90
9816;DHT22;4947;44.526;11.360;2023-03-03T05:46:57;5.90;99.90
9816;DHT22;4947;44.526;11.360;2023-03-03T05:49:25;6.00;99.90
9816;DHT22;4947;44.526;11.360;2023-03-03T05:51:54;5.90;99.90
9816;DHT22;4947;44.526;11.360;2023-03-03T05:54:22;5.90;99.90
9816;DHT22;4947;44.526;11.360;2023-03-03T05:56:50;5.90;99.90
9816;DHT22;4947;44.526;11.360;2023-03-03T05:59:18;5.90;99.90
9816;DHT22;4947;44.526;11.360;2023-03-03T06:01:46;5.90;99.90
9816;DHT22;4947;44.526;11.360;2023-03-03T06:04:14;5.90;99.90
9816;DHT22;4947;44.526;11.360;2023-03-03T06:06:42;5.90;99.90
9816;DHT22;4947;44.526;11.360;2023-03-03T06:09:11;5.90;99.90
9816;DHT22;4947;44.526;11.360;2023-03-03T06:11:39;6.00;99.90
9816;DHT22;4947;44.526;11.360;2023-03-03T06:14:09;5.90;99.90
9816;DHT22;4947;44.526;11.360;2023-03-03T06:16:37;5.90;99.90
9816;DHT22;4947;44.526;11.360;2023-03-03T06:19:04;5.80;99.90
9816;DHT22;4947;44.526;11.360;2023-03-03T06:21:32;5.80;99.90
9816;DHT22;4947;44.526;11.360;2023-03-03T06:24:00;5.80;99.90
9816;DHT22;4947;44.526;11.360;2023-03-03T06:26:30;5.90;99.90
9816;DHT22;4947;44.526;11.360;2023-03-03T06:29:01;5.90;99.90
9816;DHT22;4947;44.526;11.360;2023-03-03T06:31:29;5.90;99.90
9816;DHT22;4947;44.526;11.360;2023-03-03T06:33:57;6.00;99.90
9816;DHT22;4947;44.526;11.360;2023-03-03T06:36:24;6.10;99.90
9816;DHT22;4947;44.526;11.360;2023-03-03T06:38:52;6.20;99.90
9816;DHT22;4947;44.526;11.360;2023-03-03T06:41:20;6.30;99.90
9816;DHT22;4947;44.526;11.360;2023-03-03T06:43:50;6.40;99.90
9816;DHT22;4947;44.526;11.360;2023-03-03T06:46:17;6.50;99.90
9816;DHT22;4947;44.526;11.360;2023-03-03T06:48:45;6.60;99.90
9816;DHT22;4947;44.526;11.360;2023-03-03T06:51:21;6.60;99.90
9816;DHT22;4947;44.526;11.360;2023-03-03T06:53:53;6.60;99.90
9816;DHT22;4947;44.526;11.360;2023-03-03T06:56:23;6.60;99.90
9816;DHT22;4947;44.526;11.360;2023-03-03T06:58:55;6.70;99.90
9816;DHT22;4947;44.526;11.360;2023-03-03T07:01:24;6.80;99.90
9816;DHT22;4947;44.526;11.360;2023-03-03T07:03:52;6.80;99.90
9816;DHT22;4947;44.526;11.360;2023-03-03T07:06:22;6.90;99.90
9816;DHT22;4947;44.526;11.360;2023-03-03T07:08:51;7.00;99.90
9816;DHT22;4947;44.526;11.360;2023-03-03T07:11:20;7.00;99.90
9816;DHT22;4947;44.526;11.360;2023-03-03T07:13:49;7.10;99.90
9816;DHT22;4947;44.526;11.360;2023-03-03T07:16:23;7.20;99.90
9816;DHT22;4947;44.526;11.360;2023-03-03T07:18:53;7.40;99.90
9816;DHT22;4947;44.526;11.360;2023-03-03T07:21:22;7.50;99.90
9816;DHT22;4947;44.526;11.360;2023-03-03T07:23:52;7.70;99.90
9816;DHT22;4947;44.526;11.360;2023-03-03T07:26:22;7.80;99.90
9816;DHT22;4947;44.526;11.360;2023-03-03T07:28:53;7.90;99.90
9816;DHT22;4947;44.526;11.360;2023-03-03T07:31:34;8.10;99.90
9816;DHT22;4947;44.526;11.360;2023-03-03T07:34:12;8.20;99.90
9816;DHT22;4947;44.526;11.360;2023-03-03T07:36:40;8.40;99.90
9816;DHT22;4947;44.526;11.360;2023-03-03T07:39:27;8.50;99.90
9816;DHT22;4947;44.526;11.360;2023-03-03T07:42:02;8.80;99.90
9816;DHT22;4947;44.526;11.360;2023-03-03T07:44:36;8.90;99.90
9816;DHT22;4947;44.526;11.360;2023-03-03T07:47:17;9.10;99.90
9816;DHT22;4947;44.526;11.360;2023-03-03T07:49:47;9.30;99.90
9816;DHT22;4947;44.526;11.360;2023-03-03T07:52:28;9.40;99.90
9816;DHT22;4947;44.526;11.360;2023-03-03T07:54:58;9.40;99.90
9816;DHT22;4947;44.526;11.360;2023-03-03T07:57:29;9.60;99.90
9816;DHT22;4947;44.526;11.360;2023-03-03T08:03:20;10.00;99.90
9816;DHT22;4947;44.526;11.360;2023-03-03T08:05:48;9.90;99.90
9816;DHT22;4947;44.526;11.360;2023-03-03T08:08:26;9.90;99.90
9816;DHT22;4947;44.526;11.360;2023-03-03T08:10:56;10.10;99.90
9816;DHT22;4947;44.526;11.360;2023-03-03T08:13:27;10.30;99.90
9816;DHT22;4947;44.526;11.360;2023-03-03T08:15:59;10.20;99.90
9816;DHT22;4947;44.526;11.360;2023-03-03T08:18:32;10.20;99.90
9816;DHT22;4947;44.526;11.360;2023-03-03T08:21:02;10.20;99.90
9816;DHT22;4947;44.526;11.360;2023-03-03T08:23:31;10.30;99.90
9816;DHT22;4947;44.526;11.360;2023-03-03T08:25:58;10.10;99.90
9816;DHT22;4947;44.526;11.360;2023-03-03T08:28:26;9.90;99.90
9816;DHT22;4947;44.526;11.360;2023-03-03T08:30:53;9.80;99.90
9816;DHT22;4947;44.526;11.360;2023-03-03T08:33:21;9.90;99.90
9816;DHT22;4947;44.526;11.360;2023-03-03T08:35:51;10.10;99.90
9816;DHT22;4947;44.526;11.360;2023-03-03T08:38:20;10.10;99.90
9816;DHT22;4947;44.526;11.360;2023-03-03T08:40:48;10.10;99.90
9816;DHT22;4947;44.526;11.360;2023-03-03T08:43:17;10.20;99.90
9816;DHT22;4947;44.526;11.360;2023-03-03T08:45:47;10.20;99.90
9816;DHT22;4947;44.526;11.360;2023-03-03T08:48:15;10.20;99.90
9816;DHT22;4947;44.526;11.360;2023-03-03T08:50:43;10.30;99.90
9816;DHT22;4947;44.526;11.360;2023-03-03T08:53:13;10.50;99.90
9816;DHT22;4947;44.526;11.360;2023-03-03T08:55:41;10.60;99.90
9816;DHT22;4947;44.526;11.360;2023-03-03T08:58:08;10.40;99.90
9816;DHT22;4947;44.526;11.360;2023-03-03T09:00:36;10.40;99.90
9816;DHT22;4947;44.526;11.360;2023-03-03T09:03:04;10.50;99.90
9816;DHT22;4947;44.526;11.360;2023-03-03T09:05:33;10.60;99.90
9816;DHT22;4947;44.526;11.360;2023-03-03T09:08:01;10.80;99.90
9816;DHT22;4947;44.526;11.360;2023-03-03T09:10:30;10.80;99.90
9816;DHT22;4947;44.526;11.360;2023-03-03T09:13:02;10.90;99.90
9816;DHT22;4947;44.526;11.360;2023-03-03T09:15:32;11.00;99.90
9816;DHT22;4947;44.526;11.360;2023-03-03T09:18:11;11.10;99.90
9816;DHT22;4947;44.526;11.360;2023-03-03T09:20:42;11.20;99.90
9816;DHT22;4947;44.526;11.360;2023-03-03T09:23:29;11.10;99.90
9816;DHT22;4947;44.526;11.360;2023-03-03T09:26:22;11.10;99.90
9816;DHT22;4947;44.526;11.360;2023-03-03T09:28:52;11.00;99.90
9816;DHT22;4947;44.526;11.360;2023-03-03T09:31:24;10.90;99.90
9816;DHT22;4947;44.526;11.360;2023-03-03T09:33:53;11.10;99.90
9816;DHT22;4947;44.526;11.360;2023-03-03T09:36:28;11.20;99.90
9816;DHT22;4947;44.526;11.360;2023-03-03T09:38:56;11.40;99.90
9816;DHT22;4947;44.526;11.360;2023-03-03T09:47:46;11.80;99.90
9816;DHT22;4947;44.526;11.360;2023-03-03T09:50:25;12.00;99.90
9816;DHT22;4947;44.526;11.360;2023-03-03T09:53:07;12.00;99.90
9816;DHT22;4947;44.526;11.360;2023-03-03T09:55:44;12.00;99.90
9816;DHT22;4947;44.526;11.360;2023-03-03T09:58:30;12.20;99.90
9816;DHT22;4947;44.526;11.360;2023-03-03T10:01:12;11.90;99.90
9816;DHT22;4947;44.526;11.360;2023-03-03T10:04:00;11.90;99.90
9816;DHT22;4947;44.526;11.360;2023-03-03T10:06:36;12.10;99.90
9816;DHT22;4947;44.526;11.360;2023-03-03T10:09:26;12.20;99.90
9816;DHT22;4947;44.526;11.360;2023-03-03T10:12:02;12.30;99.90
9816;DHT22;4947;44.526;11.360;2023-03-03T10:14:45;12.50;99.90
9816;DHT22;4947;44.526;11.360;2023-03-03T10:17:27;12.70;99.90
9816;DHT22;4947;44.526;11.360;2023-03-03T10:20:08;12.70;99.90
9816;DHT22;4947;44.526;11.360;2023-03-03T10:22:46;12.40;99.90
9816;DHT22;4947;44.526;11.360;2023-03-03T10:25:25;12.50;99.90
9816;DHT22;4947;44.526;11.360;2023-03-03T10:28:16;12.40;99.90
9816;DHT22;4947;44.526;11.360;2023-03-03T10:30:55;12.20;99.90
9816;DHT22;4947;44.526;11.360;2023-03-03T10:33:28;12.20;99.90
9816;DHT22;4947;44.526;11.360;2023-03-03T10:36:19;12.20;99.90
9816;DHT22;4947;44.526;11.360;2023-03-03T10:39:00;12.40;99.90
9816;DHT22;4947;44.526;11.360;2023-03-03T10:41:42;12.30;99.90
9816;DHT22;4947;44.526;11.360;2023-03-03T10:44:28;12.40;99.90
9816;DHT22;4947;44.526;11.360;2023-03-03T10:47:30;12.50;99.90
9816;DHT22;4947;44.526;11.360;2023-03-03T10:50:09;12.40;99.90
9816;DHT22;4947;44.526;11.360;2023-03-03T10:52:45;12.40;99.90
9816;DHT22;4947;44.526;11.360;2023-03-03T10:55:38;12.50;99.90
9816;DHT22;4947;44.526;11.360;2023-03-03T10:58:21;12.60;99.90
9816;DHT22;4947;44.526;11.360;2023-03-03T11:01:00;12.50;99.90
9816;DHT22;4947;44.526;11.360;2023-03-03T11:06:36;12.60;99.90
9816;DHT22;4947;44.526;11.360;2023-03-03T11:09:15;12.90;99.90
9816;DHT22;4947;44.526;11.360;2023-03-03T11:11:48;12.90;99.90
9816;DHT22;4947;44.526;11.360;2023-03-03T11:14:23;13.00;99.90
9816;DHT22;4947;44.526;11.360;2023-03-03T11:16:59;13.00;99.90
9816;DHT22;4947;44.526;11.360;2023-03-03T11:19:45;12.80;99.90
9816;DHT22;4947;44.526;11.360;2023-03-03T11:22:26;12.80;99.70
9816;DHT22;4947;44.526;11.360;2023-03-03T11:25:07;12.70;96.50
9816;DHT22;4947;44.526;11.360;2023-03-03T11:28:04;12.70;99.40
9816;DHT22;4947;44.526;11.360;2023-03-03T11:30:54;12.70;99.40
9816;DHT22;4947;44.526;11.360;2023-03-03T11:33:30;12.70;96.70
9816;DHT22;4947;44.526;11.360;2023-03-03T11:36:10;12.70;99.90
9816;DHT22;4947;44.526;11.360;2023-03-03T11:38:56;12.60;99.90
9816;DHT22;4947;44.526;11.360;2023-03-03T11:41:35;12.60;97.80
9816;DHT22;4947;44.526;11.360;2023-03-03T11:44:16;12.60;99.90
9816;DHT22;4947;44.526;11.360;2023-03-03T11:46:47;12.60;99.50
9816;DHT22;4947;44.526;11.360;2023-03-03T11:49:21;12.60;99.70
9816;DHT22;4947;44.526;11.360;2023-03-03T11:52:02;12.60;98.60
9816;DHT22;4947;44.526;11.360;2023-03-03T11:54:39;12.70;99.00
9816;DHT22;4947;44.526;11.360;2023-03-03T11:57:17;12.80;99.00
9816;DHT22;4947;44.526;11.360;2023-03-03T12:00:02;12.80;98.70
9816;DHT22;4947;44.526;11.360;2023-03-03T12:05:41;12.90;99.90
9816;DHT22;4947;44.526;11.360;2023-03-03T12:08:23;12.80;99.90
9816;DHT22;4947;44.526;11.360;2023-03-03T12:10:59;12.80;96.50
9816;DHT22;4947;44.526;11.360;2023-03-03T12:13:40;12.90;98.30
9816;DHT22;4947;44.526;11.360;2023-03-03T12:16:17;12.80;97.40
9816;DHT22;4947;44.526;11.360;2023-03-03T12:18:56;12.90;98.50
9816;DHT22;4947;44.526;11.360;2023-03-03T12:21:37;13.00;98.90
9816;DHT22;4947;44.526;11.360;2023-03-03T12:24:33;12.90;98.20
9816;DHT22;4947;44.526;11.360;2023-03-03T12:27:16;12.90;97.20
9816;DHT22;4947;44.526;11.360;2023-03-03T12:29:52;12.90;98.00
9816;DHT22;4947;44.526;11.360;2023-03-03T12:32:38;12.90;98.60
9816;DHT22;4947;44.526;11.360;2023-03-03T12:35:16;13.00;96.70
9816;DHT22;4947;44.526;11.360;2023-03-03T12:37:50;12.90;94.30
9816;DHT22;4947;44.526;11.360;2023-03-03T12:40:20;13.00;94.20
9816;DHT22;4947;44.526;11.360;2023-03-03T12:43:08;12.90;95.00
9816;DHT22;4947;44.526;11.360;2023-03-03T12:45:46;12.90;96.90
9816;DHT22;4947;44.526;11.360;2023-03-03T12:48:20;13.00;98.00
9816;DHT22;4947;44.526;11.360;2023-03-03T12:50:56;13.00;97.00
9816;DHT22;4947;44.526;11.360;2023-03-03T12:56:33;12.90;96.80
9816;DHT22;4947;44.526;11.360;2023-03-03T12:59:09;12.90;96.60
9816;DHT22;4947;44.526;11.360;2023-03-03T13:01:56;12.90;96.80
9816;DHT22;4947;44.526;11.360;2023-03-03T13:04:34;13.00;96.90
9816;DHT22;4947;44.526;11.360;2023-03-03T13:07:08;13.00;96.30
9816;DHT22;4947;44.526;11.360;2023-03-03T13:09:50;13.10;93.50
9816;DHT22;4947;44.526;11.360;2023-03-03T13:12:29;13.10;97.20
9816;DHT22;4947;44.526;11.360;2023-03-03T13:15:08;13.10;96.40
9816;DHT22;4947;44.526;11.360;2023-03-03T13:17:44;13.00;96.90
9816;DHT22;4947;44.526;11.360;2023-03-03T13:20:20;13.10;96.90
9816;DHT22;4947;44.526;11.360;2023-03-03T13:22:53;13.20;97.40
9816;DHT22;4947;44.526;11.360;2023-03-03T13:25:36;13.20;96.60
9816;DHT22;4947;44.526;11.360;2023-03-03T13:28:12;13.30;96.00
9816;DHT22;4947;44.526;11.360;2023-03-03T13:30:46;13.30;96.30
9816;DHT22;4947;44.526;11.360;2023-03-03T13:33:18;13.40;95.00
9816;DHT22;4947;44.526;11.360;2023-03-03T13:35:50;13.40;94.50
9816;DHT22;4947;44.526;11.360;2023-03-03T13:38:22;13.50;95.70
9816;DHT22;4947;44.526;11.360;2023-03-03T13:40:56;13.40;95.70
9816;DHT22;4947;44.526;11.360;2023-03-03T13:43:28;13.50;94.30
9816;DHT22;4947;44.526;11.360;2023-03-03T13:46:05;13.60;95.40
9816;DHT22;4947;44.526;11.360;2023-03-03T13:48:42;13.60;93.50
9816;DHT22;4947;44.526;11.360;2023-03-03T13:51:22;13.70;94.90
9816;DHT22;4947;44.526;11.360;2023-03-03T13:53:58;13.70;94.60
9816;DHT22;4947;44.526;11.360;2023-03-03T13:59:27;13.80;93.00
9816;DHT22;4947;44.526;11.360;2023-03-03T14:02:09;13.80;92.40
9816;DHT22;4947;44.526;11.360;2023-03-03T14:04:46;13.90;93.00
9816;DHT22;4947;44.526;11.360;2023-03-03T14:07:21;13.90;92.50
9816;DHT22;4947;44.526;11.360;2023-03-03T14:09:59;14.00;91.60
9816;DHT22;4947;44.526;11.360;2023-03-03T14:12:36;13.80;92.90
9816;DHT22;4947;44.526;11.360;2023-03-03T14:15:17;13.70;92.90
9816;DHT22;4947;44.526;11.360;2023-03-03T14:17:59;13.60;93.40
9816;DHT22;4947;44.526;11.360;2023-03-03T14:20:33;13.50;93.20
9816;DHT22;4947;44.526;11.360;2023-03-03T14:23:03;13.40;93.30
9816;DHT22;4947;44.526;11.360;2023-03-03T14:25:56;13.30;93.20
9816;DHT22;4947;44.526;11.360;2023-03-03T14:28:26;13.20;94.40
9816;DHT22;4947;44.526;11.360;2023-03-03T14:30:56;13.20;94.60
9816;DHT22;4947;44.526;11.360;2023-03-03T14:33:29;13.20;95.10
9816;DHT22;4947;44.526;11.360;2023-03-03T14:36:04;13.20;95.90
9816;DHT22;4947;44.526;11.360;2023-03-03T14:38:37;13.10;95.40
9816;DHT22;4947;44.526;11.360;2023-03-03T14:41:13;13.20;96.10
9816;DHT22;4947;44.526;11.360;2023-03-03T14:43:42;13.20;95.20
9816;DHT22;4947;44.526;11.360;2023-03-03T14:46:30;13.10;96.60
9816;DHT22;4947;44.526;11.360;2023-03-03T14:49:02;13.20;96.30
9816;DHT22;4947;44.526;11.360;2023-03-03T14:51:38;13.30;95.30
9816;DHT22;4947;44.526;11.360;2023-03-03T14:54:12;13.40;94.80
9816;DHT22;4947;44.526;11.360;2023-03-03T14:56:58;13.40;95.20
9816;DHT22;4947;44.526;11.360;2023-03-03T14:59:29;13.50;94.70
9816;DHT22;4947;44.526;11.360;2023-03-03T15:02:11;13.60;95.30
9816;DHT22;4947;44.526;11.360;2023-03-03T15:05:12;13.70;94.90
9816;DHT22;4947;44.526;11.360;2023-03-03T15:07:41;13.70;95.10
9816;DHT22;4947;44.526;11.360;2023-03-03T15:10:09;13.70;96.30
9816;DHT22;4947;44.526;11.360;2023-03-03T15:12:39;13.60;95.60
9816;DHT22;4947;44.526;11.360;2023-03-03T15:15:17;13.60;94.50
9816;DHT22;4947;44.526;11.360;2023-03-03T15:18:08;13.60;94.10
9816;DHT22;4947;44.526;11.360;2023-03-03T15:20:41;13.60;95.00
9816;DHT22;4947;44.526;11.360;2023-03-03T15:23:42;13.60;94.50
9816;DHT22;4947;44.526;11.360;2023-03-03T15:26:17;13.60;93.90
9816;DHT22;4947;44.526;11.360;2023-03-03T15:28:54;13.50;93.90
9816;DHT22;4947;44.526;11.360;2023-03-03T15:31:34;13.40;95.10
9816;DHT22;4947;44.526;11.360;2023-03-03T15:34:19;13.30;94.60
9816;DHT22;4947;44.526;11.360;2023-03-03T15:36:54;13.30;95.80
9816;DHT22;4947;44.526;11.360;2023-03-03T15:39:30;13.30;96.20
9816;DHT22;4947;44.526;11.360;2023-03-03T15:42:02;13.30;95.90
9816;DHT22;4947;44.526;11.360;2023-03-03T15:44:37;13.40;94.90
9816;DHT22;4947;44.526;11.360;2023-03-03T15:47:33;13.30;96.20
9816;DHT22;4947;44.526;11.360;2023-03-03T15:50:20;13.40;96.90
9816;DHT22;4947;44.526;11.360;2023-03-03T15:53:04;13.40;95.50
9816;DHT22;4947;44.526;11.360;2023-03-03T15:55:51;13.40;96.10
9816;DHT22;4947;44.526;11.360;2023-03-03T16:01:28;13.30;96.40
9816;DHT22;4947;44.526;11.360;2023-03-03T16:04:00;13.20;96.60
9816;DHT22;4947;44.526;11.360;2023-03-03T16:06:41;13.10;97.00
9816;DHT22;4947;44.526;11.360;2023-03-03T16:09:29;13.10;97.80
9816;DHT22;4947;44.526;11.360;2023-03-03T16:12:03;13.00;97.40
9816;DHT22;4947;44.526;11.360;2023-03-03T16:15:14;12.90;98.00
9816;DHT22;4947;44.526;11.360;2023-03-03T16:17:52;12.80;99.90
9816;DHT22;4947;44.526;11.360;2023-03-03T16:20:26;12.70;99.90
9816;DHT22;4947;44.526;11.360;2023-03-03T16:23:19;12.70;99.90
9816;DHT22;4947;44.526;11.360;2023-03-03T16:26:09;12.80;99.90
9816;DHT22;4947;44.526;11.360;2023-03-03T16:29:10;12.70;99.20
9816;DHT22;4947;44.526;11.360;2023-03-03T16:31:47;12.80;99.10
9816;DHT22;4947;44.526;11.360;2023-03-03T16:34:20;12.80;99.80
9816;DHT22;4947;44.526;11.360;2023-03-03T16:36:56;12.90;97.90
9816;DHT22;4947;44.526;11.360;2023-03-03T16:39:40;12.90;99.10
9816;DHT22;4947;44.526;11.360;2023-03-03T16:42:19;12.80;98.80
9816;DHT22;4947;44.526;11.360;2023-03-03T16:44:59;12.80;99.20
9816;DHT22;4947;44.526;11.360;2023-03-03T16:47:41;12.70;99.10
9816;DHT22;4947;44.526;11.360;2023-03-03T16:50:20;12.60;99.90
9816;DHT22;4947;44.526;11.360;2023-03-03T16:52:55;12.50;99.90
9816;DHT22;4947;44.526;11.360;2023-03-03T16:55:31;12.30;99.90
9816;DHT22;4947;44.526;11.360;2023-03-03T16:58:16;12.20;99.90
9816;DHT22;4947;44.526;11.360;2023-03-03T17:00:52;12.10;99.90
9816;DHT22;4947;44.526;11.360;2023-03-03T17:03:43;11.90;99.90